Time;durP1;ratioP1;P1;durP2;ratioP2;P2;SDS_P1;SDS_P2;PMS_P1;PMS_P2;Temp;Humidity;BMP_temperature;BMP_pressure;BME280_temperature;BME280_humidity;BME280_pressure;Samples;Min_cycle;Max_cycle;Signal;HPM_P1;HPM_P2
2022/04/18 00:04:45;;;;;;;76.80;42.20;;;;;;;0.38;67.40;99076.14;219418;1271;26515;-70
2022/04/18 00:09:52;;;;;;;75.60;40.10;;;;;;;0.37;67.77;99075.42;219514;1271;23048;-69
2022/04/18 00:15:18;;;;;;;94.70;49.00;;;;;;;0.35;67.74;99074.16;219451;1271;22685;-70
2022/04/18 00:20:20;;;;;;;87.50;43.70;;;;;;;0.29;67.95;99072.24;219468;1271;26390;-69
2022/04/18 00:25:23;;;;;;;102.90;51.00;;;;;;;0.18;67.94;99066.06;219457;1271;23961;-70
2022/04/18 00:30:34;;;;;;;114.10;57.20;;;;;;;0.02;68.17;99067.92;219344;1272;25370;-69
2022/04/18 00:35:39;;;;;;;116.40;57.00;;;;;;;-0.13;68.88;99060.60;219541;1271;26781;-69
2022/04/18 00:40:42;;;;;;;120.80;60.50;;;;;;;-0.22;68.99;99050.72;219534;1271;25256;-70
2022/04/18 00:45:44;;;;;;;118.40;57.40;;;;;;;-0.32;69.25;99042.86;219797;1271;22603;-68
2022/04/18 00:50:50;;;;;;;106.70;56.90;;;;;;;-0.37;69.65;99035.06;219498;1271;25577;-69
2022/04/18 00:56:03;;;;;;;110.20;54.30;;;;;;;-0.38;70.08;99033.50;219438;1271;25081;-70
2022/04/18 01:01:23;;;;;;;107.30;54.00;;;;;;;-0.40;70.26;99025.41;219487;1271;25446;-70
2022/04/18 01:06:33;;;;;;;128.00;60.30;;;;;;;-0.47;70.36;99018.23;219311;1271;24549;-68
2022/04/18 01:11:36;;;;;;;141.30;71.50;;;;;;;-0.50;70.89;99010.67;219464;1271;22558;-69
2022/04/18 01:16:55;;;;;;;118.70;59.60;;;;;;;-0.54;71.03;99003.73;219368;1271;22538;-69
2022/04/18 01:22:09;;;;;;;94.00;47.80;;;;;;;-0.60;71.35;99001.25;219320;1273;22579;-69
2022/04/18 01:32:46;;;;;;;102.30;49.30;;;;;;;-0.71;71.54;98994.34;218700;1271;22607;-70
2022/04/18 01:37:50;;;;;;;103.10;51.80;;;;;;;-0.76;71.80;98987.11;219183;1271;22637;-70
2022/04/18 01:42:56;;;;;;;90.00;45.70;;;;;;;-0.80;71.84;98983.94;219737;1270;22537;-70
2022/04/18 01:47:59;;;;;;;85.30;43.00;;;;;;;-0.84;72.06;98979.52;219793;1271;22721;-70
2022/04/18 01:53:03;;;;;;;90.80;43.90;;;;;;;-0.89;72.22;98975.55;219546;1271;22615;-69
2022/04/18 01:58:09;;;;;;;97.50;46.00;;;;;;;-0.95;72.17;98971.65;219471;1271;22960;-69
2022/04/18 02:03:14;;;;;;;86.90;40.70;;;;;;;-1.02;72.32;98966.94;219311;1271;23063;-70
2022/04/18 02:08:26;;;;;;;94.10;47.00;;;;;;;-1.11;72.50;98970.04;219780;1271;25403;-69
2022/04/18 02:13:30;;;;;;;90.80;44.80;;;;;;;-1.17;72.65;98960.52;219558;1271;22781;-70
2022/04/18 02:18:34;;;;;;;85.10;43.30;;;;;;;-1.22;72.79;98955.88;219523;1271;23952;-70
2022/04/18 02:23:37;;;;;;;71.70;36.30;;;;;;;-1.25;73.00;98950.50;219342;1271;22741;-69
2022/04/18 02:28:41;;;;;;;100.20;50.20;;;;;;;-1.27;73.12;98951.00;219308;1271;24275;-69
2022/04/18 02:33:44;;;;;;;94.70;48.40;;;;;;;-1.32;73.23;98952.79;219842;1271;22566;-70
2022/04/18 02:38:48;;;;;;;118.50;61.00;;;;;;;-1.36;73.38;98948.88;219675;1271;24093;-69
2022/04/18 02:43:51;;;;;;;121.60;64.50;;;;;;;-1.41;73.46;98942.23;219507;1271;23944;-70
2022/04/18 02:48:54;;;;;;;125.70;63.20;;;;;;;-1.43;73.65;98934.38;219348;1271;22584;-69
2022/04/18 02:54:04;;;;;;;137.00;72.80;;;;;;;-1.43;73.86;98933.91;219327;1271;22772;-69
2022/04/18 02:59:29;;;;;;;118.60;59.90;;;;;;;-1.44;73.95;98929.41;219303;1271;25363;-69
2022/04/18 03:04:32;;;;;;;125.30;64.60;;;;;;;-1.46;73.85;98930.99;219354;1271;22618;-71
2022/04/18 03:09:40;;;;;;;121.50;60.40;;;;;;;-1.50;74.01;98924.30;219279;1271;22605;-69
2022/04/18 03:14:50;;;;;;;121.30;61.30;;;;;;;-1.59;73.87;98920.72;219214;1272;24525;-68
2022/04/18 03:19:54;;;;;;;123.60;63.70;;;;;;;-1.68;74.00;98920.21;219610;1271;22550;-69
2022/04/18 03:24:56;;;;;;;86.20;43.50;;;;;;;-1.78;74.06;98917.91;219401;1271;26393;-70
2022/04/18 03:29:59;;;;;;;90.00;45.00;;;;;;;-1.89;74.14;98916.35;219258;1272;22670;-69
2022/04/18 03:35:09;;;;;;;77.30;41.80;;;;;;;-1.99;74.18;98905.98;219435;1273;22558;-70
2022/04/18 03:40:12;;;;;;;89.70;44.20;;;;;;;-2.09;74.44;98901.10;219206;1273;23936;-69
2022/04/18 03:45:16;;;;;;;94.50;47.60;;;;;;;-2.13;74.76;98895.16;219312;1273;25327;-69
2022/04/18 03:50:22;;;;;;;79.90;43.00;;;;;;;-2.12;75.13;98892.90;219520;1273;25251;-70
2022/04/18 03:55:25;;;;;;;77.20;39.20;;;;;;;-2.10;75.15;98891.16;219584;1273;26602;-69
2022/04/18 04:00:39;;;;;;;70.60;36.00;;;;;;;-2.12;75.12;98891.08;219747;1271;22702;-69
2022/04/18 04:05:48;;;;;;;66.40;34.50;;;;;;;-2.15;74.87;98885.31;219669;1271;25200;-69
2022/04/18 04:10:53;;;;;;;62.20;33.70;;;;;;;-2.19;74.99;98888.02;219631;1271;25453;-69
2022/04/18 04:15:57;;;;;;;73.30;36.60;;;;;;;-2.18;75.02;98891.09;219935;1273;22721;-70
2022/04/18 04:21:02;;;;;;;64.60;32.60;;;;;;;-2.14;75.41;98886.24;219580;1271;25364;-70
2022/04/18 04:26:05;;;;;;;65.10;35.50;;;;;;;-2.10;75.37;98891.20;219825;1271;24284;-69
2022/04/18 04:31:25;;;;;;;63.90;32.50;;;;;;;-2.01;75.34;98882.23;219642;1271;25421;-69
2022/04/18 04:36:28;;;;;;;77.40;38.80;;;;;;;-1.93;75.49;98879.07;219671;1271;22922;-70
2022/04/18 04:41:32;;;;;;;70.10;37.10;;;;;;;-1.82;75.63;98878.58;219805;1271;26273;-69
2022/04/18 04:46:36;;;;;;;66.30;36.80;;;;;;;-1.67;75.69;98877.01;219790;1271;25489;-70
2022/04/18 04:51:47;;;;;;;64.80;33.40;;;;;;;-1.53;75.56;98871.45;219738;1271;22845;-70
2022/04/18 04:56:51;;;;;;;60.10;31.70;;;;;;;-1.43;75.26;98871.11;219727;1271;24255;-69
2022/04/18 05:01:58;;;;;;;71.50;38.70;;;;;;;-1.33;74.86;98871.64;219644;1271;22554;-69
2022/04/18 05:07:01;;;;;;;72.70;38.00;;;;;;;-1.18;75.21;98878.78;219709;1271;22536;-69
2022/04/18 05:12:20;;;;;;;71.20;36.50;;;;;;;-1.02;74.82;98872.28;219545;1273;22595;-70
2022/04/18 05:17:23;;;;;;;81.90;42.10;;;;;;;-0.88;74.91;98869.28;219374;1271;24245;-70
2022/04/18 05:22:38;;;;;;;86.90;46.60;;;;;;;-0.72;74.76;98868.38;219532;1271;22537;-69
2022/04/18 05:27:45;;;;;;;88.40;48.20;;;;;;;-0.52;74.96;98869.42;219340;1271;22716;-69
2022/04/18 05:33:03;;;;;;;92.30;49.80;;;;;;;-0.28;74.85;98871.35;219267;1272;25184;-69
2022/04/18 05:38:10;;;;;;;102.20;56.20;;;;;;;-0.05;74.64;98871.85;219282;1271;22763;-69
2022/04/18 05:43:22;;;;;;;113.40;58.90;;;;;;;0.18;74.67;98873.34;219684;1273;22566;-70
2022/04/18 05:48:25;;;;;;;105.30;54.80;;;;;;;0.40;74.69;98876.60;219588;1271;22546;-69
2022/04/18 05:53:30;;;;;;;117.30;58.30;;;;;;;0.62;74.75;98874.48;219793;1271;22640;-69
2022/04/18 05:58:40;;;;;;;109.50;52.70;;;;;;;0.86;74.79;98873.20;219722;1271;22650;-70
2022/04/18 06:04:05;;;;;;;116.90;54.20;;;;;;;1.13;74.67;98874.16;219310;1271;22532;-70
2022/04/18 06:09:08;;;;;;;113.10;54.10;;;;;;;1.46;74.66;98877.65;219811;1271;22708;-70
2022/04/18 06:14:11;;;;;;;105.60;48.60;;;;;;;1.85;74.74;98878.11;219784;1273;22599;-69
2022/04/18 06:19:18;;;;;;;111.80;48.60;;;;;;;2.31;74.69;98874.42;220004;1271;22751;-70
2022/04/18 06:24:21;;;;;;;115.30;50.80;;;;;;;2.80;74.07;98857.69;220037;1273;22630;-70
2022/04/18 06:29:49;;;;;;;125.10;51.80;;;;;;;3.28;73.39;98858.30;219872;1273;22705;-70
2022/04/18 06:34:53;;;;;;;107.10;47.30;;;;;;;3.55;72.70;98855.33;220198;1271;22602;-70
2022/04/18 06:40:11;;;;;;;98.00;42.60;;;;;;;3.74;72.38;98854.98;220048;1271;22623;-69
2022/04/18 06:45:19;;;;;;;82.10;32.70;;;;;;;3.96;71.63;98854.90;220117;1271;22541;-70
2022/04/18 06:50:22;;;;;;;79.60;33.90;;;;;;;4.23;70.00;98859.36;220248;1273;22557;-69
2022/04/18 07:02:00;;;;;;;41.00;22.90;;;;;;;4.98;67.90;98851.45;219598;1273;22557;-70
2022/04/18 07:07:06;;;;;;;41.80;22.20;;;;;;;5.30;66.70;98852.30;220014;1271;26391;-70
2022/04/18 07:12:10;;;;;;;32.10;20.90;;;;;;;5.61;65.72;98847.36;220005;1271;22680;-71
2022/04/18 07:17:22;;;;;;;25.40;16.20;;;;;;;5.92;65.05;98842.11;220827;1270;24676;-69
2022/04/18 07:22:31;;;;;;;27.60;16.00;;;;;;;6.21;63.93;98844.08;220285;1270;22560;-69
2022/04/18 07:27:52;;;;;;;22.80;14.90;;;;;;;6.51;62.66;98846.66;219659;1271;22529;-69
2022/04/18 07:32:55;;;;;;;27.70;18.80;;;;;;;6.77;62.34;98844.96;219646;1271;434065;-69
2022/04/18 07:43:32;;;;;;;22.60;14.60;;;;;;;7.38;61.23;98836.14;219680;1271;25313;-69
2022/04/18 07:48:43;;;;;;;17.50;11.80;;;;;;;7.69;59.52;98832.56;220000;1271;24106;-70
2022/04/18 07:54:02;;;;;;;12.20;7.90;;;;;;;7.99;58.72;98829.16;220043;1271;22741;-70
2022/04/18 07:59:07;;;;;;;8.30;6.60;;;;;;;8.24;56.99;98820.42;219476;1271;22765;-70
2022/04/18 08:04:12;;;;;;;6.50;4.40;;;;;;;8.49;55.93;98820.25;219664;1271;22620;-70
2022/04/18 08:09:15;;;;;;;5.90;4.30;;;;;;;8.63;55.06;98813.99;219927;1271;22554;-70
2022/04/18 08:14:18;;;;;;;4.90;3.70;;;;;;;8.71;53.89;98812.20;219581;1271;24147;-70
2022/04/18 08:19:35;;;;;;;14.00;10.40;;;;;;;8.81;54.11;98809.69;219804;1271;25333;-70
2022/04/18 08:24:38;;;;;;;14.60;9.50;;;;;;;8.81;53.98;98808.95;219729;1271;22766;-70
2022/04/18 08:30:12;;;;;;;14.10;9.40;;;;;;;8.89;53.76;98809.52;219469;1273;22565;-69
2022/04/18 08:35:32;;;;;;;18.10;8.30;;;;;;;9.07;53.34;98809.70;219737;1271;25379;-70
2022/04/18 08:40:42;;;;;;;5.20;3.90;;;;;;;9.20;52.10;98807.36;219743;1271;24588;-69
2022/04/18 08:45:47;;;;;;;3.30;2.80;;;;;;;9.56;51.70;98800.92;219779;1271;24431;-70
2022/04/18 08:56:14;;;;;;;4.10;3.00;;;;;;;10.36;49.10;98801.65;219617;1271;22767;-70
2022/04/18 09:01:18;;;;;;;4.30;3.10;;;;;;;10.58;48.22;98798.52;220721;1271;22577;-69
2022/04/18 09:06:29;;;;;;;3.80;3.30;;;;;;;10.67;47.22;98796.83;219611;1271;24425;-70
2022/04/18 09:11:45;;;;;;;5.40;3.40;;;;;;;10.80;46.30;98786.53;219553;1271;22610;-70
2022/04/18 09:16:57;;;;;;;6.40;4.00;;;;;;;10.99;45.84;98783.91;219693;1271;25768;-71
2022/04/18 09:22:24;;;;;;;4.50;3.20;;;;;;;10.95;44.79;98784.23;219886;1271;24211;-70
2022/04/18 09:27:32;;;;;;;3.20;2.90;;;;;;;10.74;44.60;98786.28;220870;1271;24436;-70
2022/04/18 09:32:59;;;;;;;2.80;2.60;;;;;;;10.74;44.20;98786.95;220061;1271;25339;-69
2022/04/18 09:38:27;;;;;;;4.30;3.30;;;;;;;10.62;44.01;98785.77;219692;1271;24333;-70
2022/04/18 09:43:55;;;;;;;3.40;2.50;;;;;;;10.60;43.96;98783.91;220907;1271;23271;-71
2022/04/18 09:49:07;;;;;;;4.10;2.60;;;;;;;10.49;42.70;98782.71;220862;1271;22527;-70
2022/04/18 09:54:11;;;;;;;3.30;2.20;;;;;;;10.38;42.46;98782.08;219380;1271;25187;-69
2022/04/18 09:59:15;;;;;;;3.00;2.40;;;;;;;10.44;42.76;98775.22;219805;1271;25380;-69
2022/04/18 10:04:19;;;;;;;3.70;2.50;;;;;;;10.46;42.16;98766.19;219898;1271;25427;-68
2022/04/18 10:09:24;;;;;;;3.40;2.50;;;;;;;10.44;42.35;98762.04;220028;1271;22539;-72
2022/04/18 10:14:27;;;;;;;4.60;3.30;;;;;;;10.39;41.89;98762.42;220838;1271;24301;-69
2022/04/18 10:20:09;;;;;;;5.20;3.10;;;;;;;10.34;41.54;98757.83;219380;1273;25839;-69
2022/04/18 10:25:57;;;;;;;4.10;2.70;;;;;;;10.26;41.42;98755.11;219942;1271;25445;-69
2022/04/18 10:31:09;;;;;;;3.30;3.00;;;;;;;10.68;41.44;98746.24;219910;1271;22990;-69
2022/04/18 10:36:12;;;;;;;4.00;2.80;;;;;;;11.04;40.73;98739.82;219828;1271;25525;-69
2022/04/18 10:41:31;;;;;;;3.90;2.90;;;;;;;11.13;39.85;98730.61;219994;1271;22621;-69
2022/04/18 10:46:40;;;;;;;3.90;3.00;;;;;;;11.02;39.42;98741.47;219979;1271;24612;-69
2022/04/18 10:51:46;;;;;;;3.90;3.20;;;;;;;10.92;39.08;98742.04;219951;1271;22578;-69
2022/04/18 10:57:01;;;;;;;3.30;2.90;;;;;;;10.84;39.01;98735.40;219955;1271;22534;-70
2022/04/18 11:02:38;;;;;;;3.90;3.00;;;;;;;10.84;39.32;98726.74;219755;1271;22605;-70
2022/04/18 11:07:44;;;;;;;3.50;2.90;;;;;;;10.93;38.85;98727.33;220042;1271;24375;-71
2022/04/18 11:12:47;;;;;;;3.90;2.60;;;;;;;11.01;38.73;98715.05;219549;1271;25305;-69
2022/04/18 11:17:53;;;;;;;3.80;2.90;;;;;;;11.12;38.53;98710.90;219871;1271;25418;-70
2022/04/18 11:23:18;;;;;;;4.00;3.10;;;;;;;11.19;38.17;98700.49;219249;1271;23193;-69
2022/04/18 11:28:23;;;;;;;3.60;2.40;;;;;;;11.07;37.67;98700.01;219945;1271;27517;-70
2022/04/18 11:33:26;;;;;;;4.70;3.00;;;;;;;10.84;37.80;98697.45;219893;1271;22574;-70
2022/04/18 11:38:32;;;;;;;3.50;3.00;;;;;;;10.98;38.10;98687.70;219577;1272;26590;-70
2022/04/18 11:43:56;;;;;;;4.30;2.80;;;;;;;11.41;37.85;98680.11;219479;1271;25309;-69
2022/04/18 11:48:58;;;;;;;3.90;3.20;;;;;;;11.63;37.03;98678.31;220073;1271;25327;-70
2022/04/18 11:54:06;;;;;;;4.60;2.90;;;;;;;11.48;36.84;98671.46;219582;1271;25963;-70
2022/04/18 11:59:09;;;;;;;4.60;2.80;;;;;;;11.24;36.82;98670.81;219487;1271;24175;-68
2022/04/18 12:09:36;;;;;;;3.90;2.90;;;;;;;11.03;36.97;98665.00;219335;1271;24272;-70
2022/04/18 12:14:49;;;;;;;4.30;2.40;;;;;;;11.37;37.82;98657.69;219597;1271;25259;-70
2022/04/18 12:19:53;;;;;;;2.30;2.10;;;;;;;11.85;36.70;98654.44;220783;1271;22611;-69
2022/04/18 12:25:00;;;;;;;2.50;2.30;;;;;;;11.76;35.82;98647.15;219504;1271;24274;-74
2022/04/18 12:30:10;;;;;;;5.90;4.70;;;;;;;11.75;36.34;98637.19;219882;1271;22553;-69
2022/04/18 12:35:38;;;;;;;3.20;2.60;;;;;;;11.91;36.06;98630.86;219764;1271;25595;-70
2022/04/18 12:40:48;;;;;;;3.20;2.50;;;;;;;11.91;36.30;98632.46;219821;1271;22605;-70
2022/04/18 12:45:56;;;;;;;3.40;2.50;;;;;;;11.82;36.47;98622.13;219436;1271;22577;-69
2022/04/18 12:51:02;;;;;;;2.60;2.30;;;;;;;11.89;35.70;98625.85;219446;1271;22791;-69
2022/04/18 12:56:08;;;;;;;3.90;2.70;;;;;;;11.98;36.10;98616.28;220102;1271;22555;-68
2022/04/18 13:01:39;;;;;;;2.80;2.10;;;;;;;12.25;36.20;98606.42;220107;1271;22552;-68
2022/04/18 13:07:02;;;;;;;2.50;2.20;;;;;;;12.61;36.04;98601.17;219456;1271;22698;-70
2022/04/18 13:12:06;;;;;;;;;;;;;;;12.79;35.11;98598.28;219734;1271;22537;-69
2022/04/18 13:17:14;;;;;;;3.40;2.50;;;;;;;12.98;35.18;98592.64;219725;1271;22552;-70
2022/04/18 13:22:16;;;;;;;2.60;2.00;;;;;;;13.07;35.09;98588.79;219697;1271;25415;-70
2022/04/18 13:27:28;;;;;;;3.10;2.50;;;;;;;12.96;34.76;98583.61;219942;1271;23464;-69
2022/04/18 13:32:55;;;;;;;3.10;2.80;;;;;;;12.63;34.41;98581.45;219764;1271;22557;-70
2022/04/18 13:37:58;;;;;;;2.90;2.20;;;;;;;12.43;34.69;98575.31;219489;1271;22561;-70
2022/04/18 13:43:04;;;;;;;2.50;2.30;;;;;;;12.43;34.78;98572.70;219825;1271;23663;-70
2022/04/18 13:48:08;;;;;;;2.50;2.00;;;;;;;12.38;34.88;98565.14;219594;1271;24379;-70
2022/04/18 13:53:14;;;;;;;3.30;2.50;;;;;;;12.19;34.60;98570.14;220281;1271;24345;-69
2022/04/18 13:58:17;;;;;;;3.30;2.50;;;;;;;11.83;34.76;98572.41;219489;1271;25306;-70
2022/04/18 14:03:20;;;;;;;3.00;2.70;;;;;;;11.46;35.36;98567.69;219517;1271;24282;-70
2022/04/18 14:08:25;;;;;;;11.60;8.70;;;;;;;11.28;35.77;98562.84;219818;1271;24541;-72
2022/04/18 14:13:28;;;;;;;3.30;3.00;;;;;;;11.17;35.86;98562.40;219854;1271;22474;-68
2022/04/18 14:23:52;;;;;;;3.10;2.80;;;;;;;11.13;36.32;98549.65;219553;1271;24342;-72
2022/04/18 14:28:58;;;;;;;3.60;3.10;;;;;;;11.02;36.12;98550.30;219729;1271;22614;-69
2022/04/18 14:34:00;;;;;;;4.10;3.40;;;;;;;10.92;36.27;98551.12;219579;1271;24361;-69
2022/04/18 14:39:04;;;;;;;3.70;3.30;;;;;;;10.89;36.43;98541.41;219479;1271;24285;-69
2022/04/18 14:44:14;;;;;;;4.00;3.10;;;;;;;10.83;36.30;98536.21;219532;1271;22554;-69
2022/04/18 14:49:16;;;;;;;4.00;3.10;;;;;;;10.85;36.71;98530.91;219207;1273;22576;-70
2022/04/18 14:54:26;;;;;;;2.90;2.60;;;;;;;10.98;36.43;98526.03;219489;1271;24234;-70
2022/04/18 14:59:31;;;;;;;3.20;2.70;;;;;;;11.07;36.45;98519.11;219599;1271;24256;-69
2022/04/18 15:04:34;;;;;;;2.70;2.30;;;;;;;11.05;36.31;98516.94;219829;1271;23087;-70
2022/04/18 15:09:37;;;;;;;3.10;2.50;;;;;;;10.92;36.25;98517.45;219822;1271;22641;-68
2022/04/18 15:14:40;;;;;;;3.40;2.70;;;;;;;10.81;36.61;98516.11;219741;1271;22479;-69
2022/04/18 15:19:42;;;;;;;6.00;5.30;;;;;;;10.75;36.64;98512.66;219647;1271;25368;-70
2022/04/18 15:24:48;;;;;;;4.00;2.80;;;;;;;10.79;36.79;98510.24;219664;1271;22570;-71
2022/04/18 15:35:20;;;;;;;5.90;3.70;;;;;;;10.97;37.02;98504.09;219376;1271;24411;-69
2022/04/18 15:40:35;;;;;;;3.70;2.70;;;;;;;10.96;36.68;98504.79;219398;1271;24319;-69
2022/04/18 15:45:48;;;;;;;3.30;2.80;;;;;;;10.90;36.92;98504.41;219412;1271;22548;-70
2022/04/18 15:50:58;;;;;;;2.50;2.10;;;;;;;10.79;36.93;98504.23;219643;1271;24329;-70
2022/04/18 15:56:06;;;;;;;3.70;2.90;;;;;;;10.56;37.00;98499.15;219458;1271;24396;-70
2022/04/18 16:01:12;;;;;;;3.70;2.90;;;;;;;10.34;37.17;98498.64;219728;1271;24390;-69
2022/04/18 16:06:16;;;;;;;3.40;2.40;;;;;;;10.11;37.33;98493.20;219694;1271;24222;-70
2022/04/18 16:11:18;;;;;;;6.20;3.70;;;;;;;9.95;38.00;98491.16;219660;1271;22560;-69
2022/04/18 16:16:24;;;;;;;13.40;6.30;;;;;;;9.83;38.66;98490.83;219480;1271;22920;-70
2022/04/18 16:21:28;;;;;;;15.30;5.80;;;;;;;9.74;38.55;98490.27;219842;1271;24306;-70
2022/04/18 16:26:32;;;;;;;11.80;4.90;;;;;;;9.66;38.39;98486.68;219673;1271;24214;-68
2022/04/18 16:31:50;;;;;;;6.20;3.80;;;;;;;9.58;38.51;98483.11;219769;1271;22547;-68
2022/04/18 16:36:57;;;;;;;4.70;2.90;;;;;;;9.48;38.73;98482.82;219923;1271;22534;-70
2022/04/18 16:47:22;;;;;;;2.60;2.30;;;;;;;9.35;39.10;98483.57;219746;1271;22534;-71
2022/04/18 16:52:25;;;;;;;2.90;2.50;;;;;;;9.28;39.24;98482.64;219686;1271;22639;-74
2022/04/18 16:57:28;;;;;;;2.30;2.10;;;;;;;9.21;39.56;98481.38;219835;1271;22589;-70
2022/04/18 17:02:30;;;;;;;4.30;3.00;;;;;;;9.11;40.03;98474.19;220750;1271;25317;-68
2022/04/18 17:07:33;;;;;;;7.20;4.00;;;;;;;8.99;40.00;98474.98;219903;1271;25299;-69
2022/04/18 17:12:37;;;;;;;6.20;3.40;;;;;;;8.87;40.12;98477.13;220043;1271;26482;-69
2022/04/18 17:17:40;;;;;;;4.90;3.60;;;;;;;8.75;40.04;98481.70;219769;1271;25359;-70
2022/04/18 17:22:46;;;;;;;5.50;3.70;;;;;;;8.63;40.27;98484.65;219822;1271;24235;-73
2022/04/18 17:28:00;;;;;;;5.10;3.50;;;;;;;8.51;40.45;98481.45;219883;1271;22638;-69
2022/04/18 17:33:04;;;;;;;8.60;4.40;;;;;;;8.37;40.85;98477.05;220068;1271;22556;-69
2022/04/18 17:38:07;;;;;;;5.50;3.50;;;;;;;8.24;41.06;98477.55;220258;1271;24231;-69
2022/04/18 17:43:10;;;;;;;5.20;3.60;;;;;;;8.12;41.05;98478.40;220021;1271;25299;-70
2022/04/18 17:48:15;;;;;;;9.10;3.60;;;;;;;8.02;41.29;98481.77;219927;1271;22544;-69
2022/04/18 17:58:44;;;;;;;5.70;3.60;;;;;;;7.77;41.77;98479.02;219933;1271;24286;-69
2022/04/18 18:03:54;;;;;;;3.80;3.40;;;;;;;7.66;41.86;98480.09;220138;1271;22559;-69
2022/04/18 18:08:57;;;;;;;8.20;4.60;;;;;;;7.56;41.89;98478.61;220058;1271;22608;-70
2022/04/18 18:14:03;;;;;;;9.20;5.30;;;;;;;7.43;42.16;98476.05;219920;1271;22723;-69
2022/04/18 18:19:07;;;;;;;7.70;4.20;;;;;;;7.31;42.78;98481.83;219943;1273;22694;-69
2022/04/18 18:24:11;;;;;;;8.80;4.50;;;;;;;7.20;43.30;98483.63;219769;1271;23062;-69
2022/04/18 18:29:15;;;;;;;9.30;5.90;;;;;;;7.10;43.51;98478.92;219987;1271;24258;-69
2022/04/18 18:34:17;;;;;;;12.80;7.70;;;;;;;7.02;43.66;98479.92;220196;1271;22572;-69
2022/04/18 18:39:20;;;;;;;14.60;9.20;;;;;;;6.97;43.87;98482.45;219776;1271;22550;-70
2022/04/18 18:44:24;;;;;;;18.30;10.90;;;;;;;6.92;44.12;98480.05;220106;1271;24992;-70
2022/04/18 18:49:32;;;;;;;12.40;6.40;;;;;;;6.86;44.63;98475.60;220189;1270;25421;-69
2022/04/18 18:54:36;;;;;;;8.50;5.60;;;;;;;6.80;45.07;98472.48;220111;1271;22559;-68
2022/04/18 18:59:40;;;;;;;9.60;4.60;;;;;;;6.74;45.35;98472.23;219744;1271;22540;-69
2022/04/18 19:04:44;;;;;;;9.50;4.50;;;;;;;6.67;45.46;98471.44;220041;1271;22910;-70
2022/04/18 19:09:55;;;;;;;8.70;4.70;;;;;;;6.62;45.82;98472.79;219647;1273;22625;-68
2022/04/18 19:14:58;;;;;;;8.20;4.30;;;;;;;6.55;46.15;98469.34;219883;1271;22539;-68
2022/04/18 19:31:14;;;;;;;8.50;5.80;;;;;;;6.33;46.94;98456.17;219963;1271;437693;-69
2022/04/18 19:36:21;;;;;;;7.80;4.10;;;;;;;6.22;47.28;98453.53;220114;1271;22510;-69
2022/04/18 19:41:27;;;;;;;7.30;3.70;;;;;;;6.08;47.30;98449.80;220177;1271;22705;-69
2022/04/18 19:46:47;;;;;;;4.60;3.10;;;;;;;5.96;47.85;98455.85;220009;1271;24478;-69
2022/04/18 19:51:56;;;;;;;4.10;3.20;;;;;;;5.85;48.24;98452.21;219990;1271;25382;-69
2022/04/18 19:57:03;;;;;;;6.90;3.40;;;;;;;5.75;48.52;98447.69;220296;1271;22712;-68
2022/04/18 20:02:24;;;;;;;6.10;3.00;;;;;;;5.63;48.34;98443.63;220256;1270;25795;-69
2022/04/18 20:07:28;;;;;;;5.50;3.30;;;;;;;5.53;48.68;98441.12;220172;1271;22556;-69
2022/04/18 20:12:33;;;;;;;5.30;3.20;;;;;;;5.46;48.73;98439.30;219844;1271;22579;-68
2022/04/18 20:17:53;;;;;;;6.30;3.80;;;;;;;5.41;48.94;98434.73;219660;1271;24160;-71
2022/04/18 20:22:56;;;;;;;5.40;3.30;;;;;;;5.36;49.04;98431.63;219396;1271;23500;-70
2022/04/18 20:28:03;;;;;;;5.70;3.70;;;;;;;5.32;49.15;98424.93;220757;1271;22543;-69
2022/04/18 20:33:08;;;;;;;6.80;4.40;;;;;;;5.29;49.26;98426.84;219969;1271;22623;-70
2022/04/18 20:38:11;;;;;;;9.70;5.40;;;;;;;5.26;49.33;98424.16;220100;1271;22577;-70
2022/04/18 20:43:17;;;;;;;11.20;6.30;;;;;;;5.23;49.53;98414.87;220031;1271;23073;-70
2022/04/18 20:48:27;;;;;;;12.90;7.40;;;;;;;5.19;49.51;98411.67;220028;1271;22784;-69
2022/04/18 20:58:55;;;;;;;15.20;8.70;;;;;;;5.16;49.63;98400.40;219608;1271;25462;-69
2022/04/18 21:03:58;;;;;;;15.30;8.90;;;;;;;5.14;50.29;98400.13;219678;1271;22654;-68
2022/04/18 21:09:03;;;;;;;15.20;8.90;;;;;;;5.10;50.59;98392.15;219663;1271;22537;-69
2022/04/18 21:14:07;;;;;;;14.60;8.50;;;;;;;5.06;50.52;98386.30;219598;1271;24302;-69
2022/04/18 21:19:10;;;;;;;13.80;8.50;;;;;;;5.01;50.77;98385.65;219974;1271;22557;-69
2022/04/18 21:24:13;;;;;;;13.20;7.80;;;;;;;4.97;51.00;98378.63;219955;1271;24351;-68
2022/04/18 21:29:16;;;;;;;13.70;7.10;;;;;;;4.89;51.31;98369.32;219713;1271;25289;-70
2022/04/18 21:34:18;;;;;;;10.70;6.30;;;;;;;4.80;51.43;98361.42;219960;1271;25455;-69
2022/04/18 21:39:21;;;;;;;11.20;6.10;;;;;;;4.71;51.61;98358.74;219858;1271;22551;-70
2022/04/18 21:44:23;;;;;;;10.00;5.60;;;;;;;4.57;51.72;98353.95;219694;1271;22487;-69
2022/04/18 21:49:26;;;;;;;12.20;6.00;;;;;;;4.40;51.82;98356.16;219623;1272;24253;-69
2022/04/18 21:54:42;;;;;;;12.60;6.20;;;;;;;4.20;52.20;98351.98;219924;1271;22579;-70
2022/04/18 21:59:45;;;;;;;8.10;5.00;;;;;;;4.02;52.45;98349.27;219734;1271;24854;-69
2022/04/18 22:04:49;;;;;;;8.80;4.70;;;;;;;3.85;52.49;98341.10;220097;1271;22544;-69
2022/04/18 22:09:55;;;;;;;6.70;4.50;;;;;;;3.70;52.58;98339.19;220000;1271;22717;-69
2022/04/18 22:15:01;;;;;;;9.30;4.10;;;;;;;3.55;52.90;98336.11;219690;1271;22606;-69
2022/04/18 22:25:31;;;;;;;7.70;4.60;;;;;;;3.32;53.23;98332.27;219752;1271;22519;-67
2022/04/18 22:30:34;;;;;;;8.50;4.60;;;;;;;3.22;53.34;98325.93;219859;1271;22617;-69
2022/04/18 22:35:39;;;;;;;10.80;4.50;;;;;;;3.10;53.78;98318.20;219697;1271;22559;-68
2022/04/18 22:40:51;;;;;;;7.20;4.60;;;;;;;2.96;54.08;98312.61;219842;1271;22623;-70
2022/04/18 22:45:56;;;;;;;8.60;5.00;;;;;;;2.84;54.30;98305.34;219471;1271;22871;-69
2022/04/18 22:50:59;;;;;;;9.80;4.90;;;;;;;2.78;54.37;98298.67;219506;1271;26365;-69
2022/04/18 22:56:02;;;;;;;11.30;5.10;;;;;;;2.72;55.12;98296.02;219701;1271;24079;-69
2022/04/18 23:01:06;;;;;;;9.30;5.10;;;;;;;2.67;55.32;98290.83;219824;1271;24266;-67
2022/04/18 23:06:12;;;;;;;8.40;4.60;;;;;;;2.63;55.59;98285.14;219601;1271;22688;-70
2022/04/18 23:11:15;;;;;;;9.50;5.90;;;;;;;2.63;56.00;98274.45;219748;1271;24331;-70
2022/04/18 23:16:21;;;;;;;13.30;8.10;;;;;;;2.65;56.44;98268.65;220043;1271;24443;-68
2022/04/18 23:21:28;;;;;;;15.10;8.30;;;;;;;2.68;56.73;98253.92;219671;1270;24384;-70
2022/04/18 23:26:31;;;;;;;16.70;9.30;;;;;;;2.75;57.19;98249.60;219970;1270;24902;-69
2022/04/18 23:31:34;;;;;;;19.60;10.80;;;;;;;2.79;57.26;98240.59;219749;1271;24434;-70
2022/04/18 23:36:37;;;;;;;18.20;9.70;;;;;;;2.82;57.43;98235.06;219625;1271;24407;-69
2022/04/18 23:41:49;;;;;;;15.60;8.00;;;;;;;2.82;57.32;98236.98;219958;1271;24379;-69
2022/04/18 23:47:06;;;;;;;13.40;6.90;;;;;;;2.77;57.05;98232.42;219580;1271;23874;-69
2022/04/18 23:52:12;;;;;;;12.60;6.50;;;;;;;2.73;56.91;98224.14;219661;1271;24423;-70
2022/04/18 23:57:14;;;;;;;14.20;6.60;;;;;;;2.68;57.04;98213.52;219937;1270;24794;-70
